createdAt,value
2018-09-29T00:01:15.422Z,11.20
2018-09-29T00:03:45.120Z,9.87
2018-09-29T00:06:13.694Z,9.70
2018-09-29T00:08:42.088Z,9.53
2018-09-29T00:11:10.749Z,9.90
2018-09-29T00:13:39.087Z,8.23
2018-09-29T00:16:08.532Z,8.53
2018-09-29T00:18:37.143Z,7.50
2018-09-29T00:21:05.615Z,7.87
2018-09-29T00:23:34.323Z,7.40
2018-09-29T00:26:02.824Z,8.10
2018-09-29T00:28:31.226Z,7.37
2018-09-29T00:31:00.135Z,6.90
2018-09-29T00:33:28.822Z,6.73
2018-09-29T00:35:57.479Z,6.67
2018-09-29T00:38:25.866Z,6.93
2018-09-29T00:40:54.994Z,6.00
2018-09-29T00:43:23.900Z,6.00
2018-09-29T00:45:52.620Z,5.20
2018-09-29T00:48:21.957Z,5.63
2018-09-29T00:50:50.242Z,5.53
2018-09-29T00:53:18.616Z,5.13
2018-09-29T00:55:47.126Z,4.77
2018-09-29T00:58:15.385Z,4.50
2018-09-29T01:00:43.996Z,4.97
2018-09-29T01:03:12.526Z,3.80
2018-09-29T01:05:43.026Z,3.50
2018-09-29T01:08:12.219Z,3.47
2018-09-29T01:10:41.147Z,3.07
2018-09-29T01:13:10.209Z,3.20
2018-09-29T01:15:39.099Z,3.17
2018-09-29T01:18:08.279Z,3.00
2018-09-29T01:20:36.613Z,3.07
2018-09-29T01:23:05.007Z,2.83
2018-09-29T01:25:33.231Z,3.10
2018-09-29T01:28:01.847Z,2.60
2018-09-29T01:30:31.105Z,2.90
2018-09-29T01:33:00.512Z,3.37
2018-09-29T01:35:29.138Z,3.17
2018-09-29T01:37:58.225Z,3.13
2018-09-29T01:40:27.452Z,3.50
2018-09-29T01:42:56.052Z,2.80
2018-09-29T01:45:25.441Z,3.20
2018-09-29T01:47:54.108Z,3.40
2018-09-29T01:50:23.293Z,3.10
2018-09-29T01:52:53.348Z,2.63
2018-09-29T01:55:22.424Z,3.23
2018-09-29T01:57:51.527Z,2.93
2018-09-29T02:00:19.942Z,3.67
2018-09-29T02:02:48.406Z,3.63
2018-09-29T02:05:17.275Z,4.33
2018-09-29T02:07:45.775Z,3.83
2018-09-29T02:10:14.252Z,3.47
2018-09-29T02:12:42.735Z,3.40
2018-09-29T02:15:11.214Z,2.37
2018-09-29T02:17:39.716Z,2.93
2018-09-29T02:20:08.187Z,2.93
2018-09-29T02:22:36.834Z,2.77
2018-09-29T02:25:05.295Z,3.77
2018-09-29T02:27:33.874Z,3.10
2018-09-29T02:30:02.327Z,2.60
2018-09-29T02:32:30.829Z,2.30
2018-09-29T02:34:59.296Z,2.57
2018-09-29T02:37:27.752Z,1.97
2018-09-29T02:39:56.279Z,2.33
2018-09-29T02:42:25.301Z,1.80
2018-09-29T02:44:53.610Z,1.70
2018-09-29T02:47:22.212Z,1.80
2018-09-29T02:49:50.695Z,2.70
2018-09-29T02:52:19.188Z,2.00
2018-09-29T02:54:47.870Z,1.97
2018-09-29T02:57:17.359Z,1.90
2018-09-29T02:59:45.678Z,1.77
2018-09-29T03:02:14.025Z,1.90
2018-09-29T03:04:42.790Z,2.03
2018-09-29T03:07:11.347Z,1.77
2018-09-29T03:09:39.865Z,1.70
2018-09-29T03:12:08.351Z,1.97
2018-09-29T03:14:36.954Z,3.70
2018-09-29T03:17:05.430Z,2.13
2018-09-29T03:19:33.926Z,1.70
2018-09-29T03:22:02.837Z,1.87
2018-09-29T03:24:31.357Z,2.17
2018-09-29T03:26:59.865Z,1.37
2018-09-29T03:29:28.339Z,2.03
2018-09-29T03:31:56.973Z,3.03
2018-09-29T03:34:25.330Z,2.50
2018-09-29T03:36:54.147Z,2.77
2018-09-29T03:39:22.380Z,2.70
2018-09-29T03:41:50.846Z,2.67
2018-09-29T03:44:19.438Z,2.77
2018-09-29T03:46:47.848Z,2.63
2018-09-29T03:49:16.514Z,3.20
2018-09-29T03:51:45.210Z,3.33
2018-09-29T03:54:13.742Z,3.67
2018-09-29T03:56:42.706Z,2.97
2018-09-29T03:59:11.722Z,2.67
2018-09-29T04:01:40.636Z,2.87
2018-09-29T04:04:09.303Z,2.80
2018-09-29T04:06:37.961Z,3.00
2018-09-29T04:09:07.158Z,2.63
2018-09-29T04:11:36.251Z,3.07
2018-09-29T04:14:05.647Z,3.07
2018-09-29T04:16:33.985Z,3.37
2018-09-29T04:19:03.067Z,2.93
2018-09-29T04:21:35.500Z,3.13
2018-09-29T04:24:04.903Z,2.90
2018-09-29T04:26:33.482Z,3.30
2018-09-29T04:29:01.997Z,2.90
2018-09-29T04:31:30.303Z,2.90
2018-09-29T04:34:00.314Z,3.23
2018-09-29T04:36:28.559Z,2.90
2018-09-29T04:38:56.930Z,2.73
2018-09-29T04:41:25.132Z,3.00
2018-09-29T04:43:53.399Z,2.60
2018-09-29T04:46:21.882Z,2.40
2018-09-29T04:48:50.236Z,2.50
2018-09-29T04:51:18.915Z,2.47
2018-09-29T04:53:47.404Z,2.60
2018-09-29T04:56:15.644Z,3.37
2018-09-29T04:58:44.984Z,3.00
2018-09-29T05:01:13.319Z,2.70
2018-09-29T05:03:42.474Z,2.97
2018-09-29T05:06:10.973Z,3.17
2018-09-29T05:08:41.190Z,3.03
2018-09-29T05:11:09.552Z,2.80
2018-09-29T05:13:37.976Z,3.23
2018-09-29T05:16:06.761Z,2.50
2018-09-29T05:18:34.993Z,2.60
2018-09-29T05:21:03.348Z,2.60
2018-09-29T05:23:31.621Z,3.03
2018-09-29T05:25:59.975Z,2.37
2018-09-29T05:28:29.679Z,3.17
2018-09-29T05:30:58.595Z,2.97
2018-09-29T05:33:27.205Z,2.97
2018-09-29T05:35:55.906Z,2.93
2018-09-29T05:38:24.571Z,2.40
2018-09-29T05:40:52.983Z,2.90
2018-09-29T05:43:21.432Z,2.50
2018-09-29T05:45:51.490Z,2.40
2018-09-29T05:48:19.811Z,2.97
2018-09-29T05:50:49.238Z,2.33
2018-09-29T05:53:18.058Z,2.70
2018-09-29T05:55:47.665Z,2.67
2018-09-29T05:58:17.074Z,2.80
2018-09-29T06:00:45.673Z,2.93
2018-09-29T06:03:14.462Z,2.77
2018-09-29T06:05:43.742Z,2.63
2018-09-29T06:08:12.561Z,2.90
2018-09-29T06:10:41.813Z,2.30
2018-09-29T06:13:10.538Z,2.43
2018-09-29T06:15:39.188Z,2.43
2018-09-29T06:18:08.824Z,2.77
2018-09-29T06:20:37.659Z,2.27
2018-09-29T06:23:06.226Z,2.80
2018-09-29T06:25:34.450Z,1.97
2018-09-29T06:28:02.784Z,2.57
2018-09-29T06:30:30.988Z,2.40
2018-09-29T06:32:59.283Z,2.10
2018-09-29T06:35:27.548Z,2.77
2018-09-29T06:37:55.869Z,2.60
2018-09-29T06:40:24.069Z,1.90
2018-09-29T06:42:52.606Z,2.03
2018-09-29T06:45:20.846Z,2.17
2018-09-29T06:47:49.131Z,1.70
2018-09-29T06:50:17.431Z,2.27
2018-09-29T06:52:45.674Z,2.43
2018-09-29T06:55:13.985Z,1.97
2018-09-29T06:57:43.035Z,1.93
2018-09-29T07:00:11.637Z,3.07
2018-09-29T07:02:40.413Z,1.93
2018-09-29T07:05:08.992Z,1.67
2018-09-29T07:07:37.423Z,2.43
2018-09-29T07:10:05.718Z,2.03
2018-09-29T07:12:33.942Z,2.40
2018-09-29T07:15:02.136Z,2.43
2018-09-29T07:17:30.501Z,2.67
2018-09-29T07:19:58.798Z,2.17
2018-09-29T07:22:27.121Z,2.63
2018-09-29T07:24:55.664Z,2.60
2018-09-29T07:27:23.902Z,2.30
2018-09-29T07:29:52.233Z,2.10
2018-09-29T07:32:20.648Z,1.83
2018-09-29T07:34:48.827Z,1.50
2018-09-29T07:37:17.145Z,1.83
2018-09-29T07:39:45.566Z,1.97
2018-09-29T07:42:13.814Z,1.70
2018-09-29T07:44:42.179Z,1.60
2018-09-29T07:47:10.776Z,2.10
2018-09-29T07:49:39.204Z,1.67
2018-09-29T07:52:07.434Z,2.00
2018-09-29T07:54:35.717Z,2.20
2018-09-29T07:57:03.934Z,2.17
2018-09-29T07:59:32.114Z,2.00
2018-09-29T08:02:00.727Z,1.63
2018-09-29T08:04:29.564Z,1.87
2018-09-29T08:06:57.832Z,2.17
2018-09-29T08:09:26.211Z,1.93
2018-09-29T08:11:54.442Z,2.00
2018-09-29T08:14:23.105Z,2.97
2018-09-29T08:16:51.770Z,2.03
2018-09-29T08:19:20.261Z,2.10
2018-09-29T08:21:49.119Z,2.00
2018-09-29T08:24:17.781Z,2.10
2018-09-29T08:26:46.527Z,1.97
2018-09-29T08:29:14.832Z,2.10
2018-09-29T08:31:43.121Z,2.47
2018-09-29T08:34:12.410Z,1.80
2018-09-29T08:36:40.663Z,2.07
2018-09-29T08:39:09.643Z,1.70
2018-09-29T08:41:37.958Z,1.70
2018-09-29T08:44:06.766Z,2.23
2018-09-29T08:46:35.855Z,2.13
2018-09-29T08:49:04.115Z,2.80
2018-09-29T08:51:32.319Z,2.03
2018-09-29T08:54:00.704Z,2.40
2018-09-29T08:56:28.978Z,2.13
2018-09-29T08:58:57.442Z,2.60
2018-09-29T09:01:25.841Z,2.17
2018-09-29T09:03:54.105Z,2.10
2018-09-29T09:06:22.344Z,1.87
2018-09-29T09:08:50.592Z,2.97
2018-09-29T09:11:18.854Z,2.17
2018-09-29T09:13:47.003Z,2.30
2018-09-29T09:16:15.194Z,2.13
2018-09-29T09:18:43.426Z,3.03
2018-09-29T09:21:11.747Z,2.40
2018-09-29T09:23:40.024Z,3.63
2018-09-29T09:26:08.252Z,3.07
2018-09-29T09:28:36.625Z,5.40
2018-09-29T09:31:04.910Z,9.33
2018-09-29T09:33:33.224Z,3.17
2018-09-29T09:36:01.475Z,2.47
2018-09-29T09:38:29.886Z,2.10
2018-09-29T09:40:58.230Z,1.97
2018-09-29T09:43:26.512Z,2.13
2018-09-29T09:45:55.723Z,3.57
2018-09-29T09:48:23.950Z,2.73
2018-09-29T09:50:52.197Z,2.63
2018-09-29T09:53:20.426Z,3.20
2018-09-29T09:55:48.798Z,2.20
2018-09-29T09:58:17.307Z,2.30
2018-09-29T10:00:50.975Z,2.30
2018-09-29T10:03:24.595Z,2.13
2018-09-29T10:05:52.835Z,3.77
2018-09-29T10:08:21.079Z,4.23
2018-09-29T10:10:49.575Z,7.87
2018-09-29T10:13:17.884Z,4.70
2018-09-29T10:15:46.291Z,4.03
2018-09-29T10:18:14.521Z,5.47
2018-09-29T10:20:42.753Z,2.97
2018-09-29T10:23:11.113Z,3.07
2018-09-29T10:25:39.316Z,2.70
2018-09-29T10:28:07.691Z,3.00
2018-09-29T10:30:36.162Z,3.07
2018-09-29T10:33:04.371Z,2.03
2018-09-29T10:35:32.640Z,6.80
2018-09-29T10:38:00.920Z,7.40
2018-09-29T10:40:29.180Z,5.00
2018-09-29T10:42:57.711Z,6.30
2018-09-29T10:45:26.436Z,3.20
2018-09-29T10:47:54.723Z,4.27
2018-09-29T10:50:23.212Z,4.77
2018-09-29T10:52:51.925Z,4.93
2018-09-29T10:55:20.096Z,3.17
2018-09-29T10:57:48.478Z,2.97
2018-09-29T11:00:17.752Z,4.03
2018-09-29T11:02:46.103Z,4.53
2018-09-29T11:05:14.484Z,4.93
2018-09-29T11:07:42.868Z,5.67
2018-09-29T11:10:11.239Z,6.73
2018-09-29T11:12:40.022Z,6.43
2018-09-29T11:15:08.283Z,6.33
2018-09-29T11:17:36.635Z,6.73
2018-09-29T11:20:05.011Z,7.13
2018-09-29T11:22:33.275Z,6.23
2018-09-29T11:25:01.644Z,6.17
2018-09-29T11:27:30.049Z,6.40
2018-09-29T11:29:58.298Z,5.57
2018-09-29T11:32:26.494Z,6.00
2018-09-29T11:34:54.858Z,5.07
2018-09-29T11:37:23.222Z,5.57
2018-09-29T11:39:51.608Z,6.20
2018-09-29T11:42:19.978Z,5.83
2018-09-29T11:44:48.359Z,6.47
2018-09-29T11:47:16.575Z,7.00
2018-09-29T11:49:44.874Z,7.07
2018-09-29T11:52:13.070Z,6.70
2018-09-29T11:54:41.678Z,6.90
2018-09-29T11:57:10.122Z,6.73
2018-09-29T11:59:38.386Z,6.27
2018-09-29T12:02:06.748Z,8.27
2018-09-29T12:04:35.466Z,7.33
2018-09-29T12:07:03.735Z,7.03
2018-09-29T12:09:32.030Z,6.00
2018-09-29T12:12:00.313Z,6.97
2018-09-29T12:14:28.614Z,6.93
2018-09-29T12:16:57.094Z,5.40
2018-09-29T12:19:25.295Z,4.23
2018-09-29T12:21:53.562Z,7.83
2018-09-29T12:24:21.991Z,7.27
2018-09-29T12:26:50.163Z,5.03
2018-09-29T12:29:18.443Z,5.23
2018-09-29T12:31:46.781Z,4.50
2018-09-29T12:34:15.171Z,5.40
2018-09-29T12:36:43.427Z,4.70
2018-09-29T12:39:12.056Z,4.23
2018-09-29T12:41:40.264Z,4.23
2018-09-29T12:44:08.520Z,4.20
2018-09-29T12:46:37.127Z,3.97
2018-09-29T12:49:05.436Z,4.03
2018-09-29T12:51:33.813Z,4.37
2018-09-29T12:54:01.979Z,3.60
2018-09-29T12:56:30.302Z,3.60
2018-09-29T12:58:58.549Z,3.47
2018-09-29T13:01:26.768Z,4.07
2018-09-29T13:03:55.042Z,3.63
2018-09-29T13:06:24.092Z,4.10
2018-09-29T13:08:52.489Z,3.43
2018-09-29T13:11:20.998Z,4.13
2018-09-29T13:13:49.305Z,3.77
2018-09-29T13:16:17.998Z,4.17
2018-09-29T13:18:47.972Z,3.77
2018-09-29T13:21:16.457Z,4.50
2018-09-29T13:23:44.761Z,3.67
2018-09-29T13:26:13.262Z,3.93
2018-09-29T13:28:42.217Z,3.60
2018-09-29T13:31:11.230Z,6.30
2018-09-29T13:33:39.551Z,3.77
2018-09-29T13:36:09.715Z,3.80
2018-09-29T13:38:37.932Z,3.63
2018-09-29T13:41:06.151Z,4.60
2018-09-29T13:43:34.408Z,4.43
2018-09-29T13:46:02.736Z,3.73
2018-09-29T13:48:31.219Z,3.13
2018-09-29T13:50:59.381Z,3.40
2018-09-29T13:53:27.881Z,4.13
2018-09-29T13:55:56.188Z,3.07
2018-09-29T13:58:24.514Z,2.90
2018-09-29T14:00:52.932Z,2.60
2018-09-29T14:03:21.180Z,2.80
2018-09-29T14:05:49.443Z,2.60
2018-09-29T14:08:17.743Z,2.67
2018-09-29T14:10:46.603Z,2.83
2018-09-29T14:13:16.043Z,2.50
2018-09-29T14:15:44.795Z,3.20
2018-09-29T14:18:13.613Z,2.90
2018-09-29T14:20:42.429Z,2.93
2018-09-29T14:23:11.448Z,3.97
2018-09-29T14:25:40.710Z,3.57
2018-09-29T14:28:09.822Z,5.30
2018-09-29T14:30:38.180Z,3.17
2018-09-29T14:33:06.870Z,2.60
2018-09-29T14:35:35.271Z,2.67
2018-09-29T14:38:03.806Z,2.80
2018-09-29T14:40:32.259Z,2.67
2018-09-29T14:43:00.567Z,2.43
2018-09-29T14:45:28.915Z,2.90
2018-09-29T14:47:57.638Z,3.10
2018-09-29T14:50:26.041Z,3.43
2018-09-29T14:52:54.502Z,3.03
2018-09-29T14:55:22.811Z,2.80
2018-09-29T14:57:51.632Z,3.13
2018-09-29T15:00:19.886Z,2.53
2018-09-29T15:02:48.170Z,2.80
2018-09-29T15:05:16.642Z,3.13
2018-09-29T15:07:45.126Z,3.53
2018-09-29T15:10:13.351Z,3.70
2018-09-29T15:12:41.533Z,3.43
2018-09-29T15:15:10.095Z,2.93
2018-09-29T15:17:38.797Z,3.30
2018-09-29T15:20:07.601Z,3.27
2018-09-29T15:22:36.232Z,3.50
2018-09-29T15:25:05.197Z,3.17
2018-09-29T15:27:33.417Z,3.20
2018-09-29T15:30:02.010Z,3.10
2018-09-29T15:32:30.458Z,3.37
2018-09-29T15:34:58.804Z,3.10
2018-09-29T15:37:27.017Z,3.70
2018-09-29T15:39:55.461Z,3.50
2018-09-29T15:42:23.821Z,3.73
2018-09-29T15:44:52.144Z,3.23
2018-09-29T15:47:20.994Z,3.27
2018-09-29T15:49:49.244Z,3.60
2018-09-29T15:52:17.494Z,3.07
2018-09-29T15:54:46.022Z,3.33
2018-09-29T15:57:14.598Z,3.73
2018-09-29T15:59:43.004Z,3.30
2018-09-29T16:02:11.306Z,3.30
2018-09-29T16:04:40.206Z,3.30
2018-09-29T16:07:08.647Z,3.57
2018-09-29T16:09:36.963Z,3.60
2018-09-29T16:12:05.317Z,3.40
2018-09-29T16:14:33.574Z,4.33
2018-09-29T16:17:01.810Z,4.10
2018-09-29T16:19:30.079Z,4.57
2018-09-29T16:21:58.435Z,4.90
2018-09-29T16:24:26.845Z,3.70
2018-09-29T16:26:55.321Z,4.60
2018-09-29T16:29:23.687Z,4.80
2018-09-29T16:31:52.219Z,4.17
2018-09-29T16:34:20.409Z,4.33
2018-09-29T16:36:49.016Z,4.80
2018-09-29T16:39:17.542Z,4.80
2018-09-29T16:41:45.835Z,4.37
2018-09-29T16:44:14.186Z,4.43
2018-09-29T16:46:42.408Z,5.20
2018-09-29T16:49:10.604Z,4.80
2018-09-29T16:51:38.850Z,4.60
2018-09-29T16:54:07.140Z,4.67
2018-09-29T16:56:35.549Z,5.53
2018-09-29T16:59:03.931Z,4.87
2018-09-29T17:01:32.238Z,4.40
2018-09-29T17:04:00.584Z,4.50
2018-09-29T17:06:29.012Z,4.60
2018-09-29T17:08:57.341Z,5.80
2018-09-29T17:11:25.602Z,4.80
2018-09-29T17:13:53.968Z,5.67
2018-09-29T17:16:22.154Z,6.80
2018-09-29T17:18:50.937Z,4.87
2018-09-29T17:21:19.393Z,5.40
2018-09-29T17:23:47.808Z,5.43
2018-09-29T17:26:16.391Z,5.50
2018-09-29T17:28:45.816Z,4.73
2018-09-29T17:31:14.195Z,3.70
2018-09-29T17:33:42.739Z,4.80
2018-09-29T17:36:11.677Z,4.93
2018-09-29T17:38:40.623Z,4.70
2018-09-29T17:41:09.171Z,5.03
2018-09-29T17:43:37.722Z,20.40
2018-09-29T17:46:07.079Z,12.50
2018-09-29T17:48:35.406Z,5.80
2018-09-29T17:51:03.738Z,6.10
2018-09-29T17:53:32.295Z,5.00
2018-09-29T17:56:00.536Z,5.40
2018-09-29T17:58:28.830Z,5.27
2018-09-29T18:00:57.479Z,5.80
2018-09-29T18:03:26.034Z,6.70
2018-09-29T18:05:55.538Z,5.00
2018-09-29T18:08:23.843Z,4.63
2018-09-29T18:10:52.401Z,4.43
2018-09-29T18:13:21.152Z,5.20
2018-09-29T18:15:50.503Z,5.13
2018-09-29T18:18:19.012Z,5.27
2018-09-29T18:20:48.782Z,5.30
2018-09-29T18:23:17.689Z,5.37
2018-09-29T18:25:47.089Z,6.10
2018-09-29T18:28:16.454Z,6.07
2018-09-29T18:30:45.616Z,5.10
2018-09-29T18:33:14.215Z,5.23
2018-09-29T18:35:44.056Z,5.13
2018-09-29T18:38:12.679Z,8.00
2018-09-29T18:40:42.183Z,12.17
2018-09-29T18:43:10.774Z,11.10
2018-09-29T18:45:39.386Z,8.33
2018-09-29T18:48:07.866Z,6.23
2018-09-29T18:50:36.428Z,6.00
2018-09-29T18:53:05.332Z,6.03
2018-09-29T18:55:33.611Z,6.10
2018-09-29T18:58:01.927Z,5.30
2018-09-29T19:00:30.397Z,5.43
2018-09-29T19:02:59.110Z,5.63
2018-09-29T19:05:27.603Z,5.10
2018-09-29T19:07:56.151Z,4.73
2018-09-29T19:10:24.686Z,5.90
2018-09-29T19:12:54.151Z,6.13
2018-09-29T19:15:22.635Z,8.60
2018-09-29T19:17:51.261Z,7.87
2018-09-29T19:20:19.820Z,9.53
2018-09-29T19:22:48.298Z,9.77
2018-09-29T19:25:16.835Z,12.43
2018-09-29T19:27:45.217Z,13.57
2018-09-29T19:30:13.517Z,11.20
2018-09-29T19:32:41.903Z,6.00
2018-09-29T19:35:10.151Z,5.13
2018-09-29T19:37:39.488Z,4.57
2018-09-29T19:40:08.106Z,5.40
2018-09-29T19:42:36.774Z,6.60
2018-09-29T19:45:05.367Z,5.70
2018-09-29T19:47:33.794Z,6.60
2018-09-29T19:50:02.559Z,6.47
2018-09-29T19:52:31.058Z,7.43
2018-09-29T19:54:59.702Z,5.70
2018-09-29T19:57:28.696Z,4.47
2018-09-29T19:59:57.478Z,4.83
2018-09-29T20:02:26.243Z,7.27
2018-09-29T20:04:55.482Z,4.40
2018-09-29T20:07:24.716Z,5.40
2018-09-29T20:09:53.663Z,6.20
2018-09-29T20:12:22.410Z,4.13
2018-09-29T20:14:51.237Z,6.07
2018-09-29T20:17:20.366Z,5.10
2018-09-29T20:19:48.717Z,4.00
2018-09-29T20:22:17.286Z,4.37
2018-09-29T20:24:46.321Z,4.50
2018-09-29T20:27:14.667Z,6.53
2018-09-29T20:29:43.083Z,4.50
2018-09-29T20:32:11.409Z,4.67
2018-09-29T20:34:40.038Z,5.30
2018-09-29T20:37:08.678Z,4.13
2018-09-29T20:39:37.133Z,4.30
2018-09-29T20:42:05.732Z,4.50
2018-09-29T20:44:34.427Z,3.90
2018-09-29T20:47:02.898Z,4.70
2018-09-29T20:49:31.202Z,7.03
2018-09-29T20:51:59.460Z,4.73
2018-09-29T20:54:27.704Z,5.30
2018-09-29T20:56:56.331Z,4.83
2018-09-29T20:59:24.589Z,4.80
2018-09-29T21:01:53.964Z,4.50
2018-09-29T21:04:23.009Z,4.40
2018-09-29T21:06:51.294Z,5.03
2018-09-29T21:09:20.179Z,5.00
2018-09-29T21:11:48.752Z,3.70
2018-09-29T21:14:17.022Z,3.33
2018-09-29T21:16:45.548Z,3.73
2018-09-29T21:19:14.508Z,3.40
2018-09-29T21:21:42.832Z,4.20
2018-09-29T21:24:12.268Z,4.07
2018-09-29T21:26:41.286Z,4.67
2018-09-29T21:29:10.265Z,3.80
2018-09-29T21:31:38.512Z,4.27
2018-09-29T21:34:07.132Z,4.30
2018-09-29T21:36:37.001Z,4.70
2018-09-29T21:39:08.138Z,4.80
2018-09-29T21:41:37.111Z,4.80
2018-09-29T21:44:06.795Z,4.10
2018-09-29T21:46:35.624Z,4.10
2018-09-29T21:49:06.749Z,4.10
2018-09-29T21:51:35.530Z,4.33
2018-09-29T21:54:05.581Z,3.70
2018-09-29T21:56:34.615Z,4.37
2018-09-29T21:59:02.844Z,4.87
2018-09-29T22:01:32.755Z,4.87
2018-09-29T22:04:02.369Z,4.70
2018-09-29T22:06:31.327Z,5.83
2018-09-29T22:09:00.375Z,4.67
2018-09-29T22:11:29.171Z,4.23
2018-09-29T22:13:58.491Z,4.13
2018-09-29T22:16:27.463Z,4.40
2018-09-29T22:18:56.426Z,3.67
2018-09-29T22:21:24.965Z,4.20
2018-09-29T22:23:53.821Z,4.97
2018-09-29T22:26:22.823Z,4.20
2018-09-29T22:28:52.005Z,3.77
2018-09-29T22:31:21.102Z,4.40
2018-09-29T22:33:50.452Z,3.60
2018-09-29T22:36:19.434Z,3.10
2018-09-29T22:38:48.304Z,4.17
2018-09-29T22:41:19.524Z,3.37
2018-09-29T22:43:49.760Z,2.83
2018-09-29T22:46:18.397Z,3.43
2018-09-29T22:48:47.759Z,3.20
2018-09-29T22:51:16.316Z,3.73
2018-09-29T22:53:46.134Z,3.73
2018-09-29T22:56:15.030Z,3.90
2018-09-29T22:58:43.578Z,3.30
2018-09-29T23:01:12.282Z,4.03
2018-09-29T23:03:40.891Z,2.93
2018-09-29T23:06:09.559Z,3.23
2018-09-29T23:08:38.779Z,2.83
2018-09-29T23:11:07.302Z,3.30
2018-09-29T23:13:35.498Z,3.20
2018-09-29T23:16:05.060Z,3.97
2018-09-29T23:18:33.294Z,3.47
2018-09-29T23:21:02.757Z,3.00
2018-09-29T23:23:31.703Z,3.03
2018-09-29T23:26:00.082Z,3.20
2018-09-29T23:28:29.474Z,3.13
2018-09-29T23:30:57.887Z,3.53
2018-09-29T23:33:26.204Z,2.90
2018-09-29T23:35:54.727Z,3.30
2018-09-29T23:38:23.007Z,3.37
2018-09-29T23:40:51.490Z,2.63
2018-09-29T23:43:20.004Z,2.97
2018-09-29T23:45:48.271Z,2.87
2018-09-29T23:48:17.050Z,3.13
2018-09-29T23:50:45.254Z,2.90
2018-09-29T23:53:13.618Z,2.70
2018-09-29T23:55:42.071Z,2.90
2018-09-29T23:58:10.456Z,3.03
